Terminal Aerodrome Forecast
Issued by NWS Charleston, WV

Current Version | Previous Version | Text Only | Print | Product List | Glossary Off
Versions: 1 2 3 4 5 6 7 8 9 10 11 12 13 14 15 16 17 18 19 20 21 22 23 24

000
FTUS41 KRLX 220813 AAA
TAFPKB
TAF AMD
KPKB 220813Z 2208/2306 30013G20KT 6SM -RA BR BKN024 OVC030
     FM220900 31007KT P6SM OVC012
     FM221100 31006KT P6SM BKN025
     FM221200 32006KT P6SM SCT025
     FM221800 32006KT P6SM SCT035
     FM230100 00000KT P6SM FEW035=

USA.gov is the U.S. government's official web portal to all federal, state and local government web resources and services.